Time;durP1;ratioP1;P1;durP2;ratioP2;P2;SDS_P1;SDS_P2;PMS_P1;PMS_P2;Temp;Humidity;BMP_temperature;BMP_pressure;BME280_temperature;BME280_humidity;BME280_pressure;Samples;Min_cycle;Max_cycle;Signal;HPM_P1;HPM_P2
2022/11/26 00:00:51;;;;;;;6.50;4.15;;;;;;;-4.50;77.52;100832.78;4924915;28;20433;-75
2022/11/26 00:03:17;;;;;;;11.43;7.60;;;;;;;-4.65;77.36;100843.09;4942323;28;20145;-73
2022/11/26 00:05:44;;;;;;;8.60;4.50;;;;;;;-4.63;77.23;100840.50;4892572;28;20077;-73
2022/11/26 00:08:27;;;;;;;12.68;6.70;;;;;;;-4.58;77.52;100841.41;4916366;28;20273;-73
2022/11/26 00:10:53;;;;;;;12.27;6.65;;;;;;;-4.69;78.29;100843.91;4938953;28;20149;-77
2022/11/26 00:13:26;;;;;;;12.88;7.10;;;;;;;-4.68;78.08;100844.78;4909731;28;20049;-74
2022/11/26 00:15:51;;;;;;;11.18;6.93;;;;;;;-4.69;78.08;100848.25;4907756;28;20132;-77
2022/11/26 00:18:17;;;;;;;10.27;6.40;;;;;;;-4.48;78.42;100853.63;4931551;28;20055;-74
2022/11/26 00:20:43;;;;;;;11.85;5.68;;;;;;;-4.39;77.61;100846.78;4923774;28;20053;-75
2022/11/26 00:23:23;;;;;;;11.98;6.40;;;;;;;-4.43;77.60;100849.34;4940814;28;20044;-75
2022/11/26 00:25:51;;;;;;;9.45;6.30;;;;;;;-4.27;77.22;100853.81;4941302;28;20039;-76
2022/11/26 00:28:28;;;;;;;9.73;6.57;;;;;;;-4.41;76.99;100845.03;4923323;28;20416;-76
2022/11/26 00:30:58;;;;;;;12.73;8.05;;;;;;;-4.64;77.19;100841.38;4908218;28;20125;-77
2022/11/26 00:33:23;;;;;;;15.82;7.63;;;;;;;-4.70;77.49;100844.75;4937898;28;20161;-78
2022/11/26 00:35:51;;;;;;;9.88;6.32;;;;;;;-4.66;77.69;100845.69;4940299;28;20787;-78
2022/11/26 00:38:18;;;;;;;11.80;6.50;;;;;;;-4.70;78.34;100844.75;4907987;28;20126;-79
2022/11/26 00:40:43;;;;;;;9.68;5.60;;;;;;;-4.64;78.07;100847.44;4923910;28;20043;-74
2022/11/26 00:43:12;;;;;;;12.23;8.05;;;;;;;-4.58;78.12;100842.28;4906313;28;20053;-73
2022/11/26 00:45:37;;;;;;;15.43;8.02;;;;;;;-4.61;78.75;100839.63;4922269;28;20034;-75
2022/11/26 00:48:01;;;;;;;14.02;8.05;;;;;;;-4.63;78.55;100835.31;4939391;28;20066;-73
2022/11/26 00:50:28;;;;;;;11.88;6.47;;;;;;;-4.57;78.57;100846.63;4922017;28;20045;-73
2022/11/26 00:52:55;;;;;;;9.82;6.13;;;;;;;-4.54;78.82;100844.06;4906555;28;20062;-70
2022/11/26 00:55:39;;;;;;;13.35;7.97;;;;;;;-4.56;78.43;100843.16;4922465;28;20061;-70
2022/11/26 00:58:05;;;;;;;;;;;;;;;-4.34;78.89;100846.81;4939341;28;20050;-71
2022/11/26 01:00:32;;;;;;;15.55;8.55;;;;;;;-4.45;78.07;100836.31;4934221;28;19922;-70
2022/11/26 01:02:57;;;;;;;14.77;7.85;;;;;;;-4.54;78.08;100836.25;4918404;28;20042;-75
2022/11/26 01:05:24;;;;;;;10.85;6.22;;;;;;;-4.41;78.13;100845.91;4917828;28;20058;-76
2022/11/26 01:07:50;;;;;;;17.45;9.70;;;;;;;-4.56;78.08;100856.19;4920018;28;20405;-75
2022/11/26 01:10:15;;;;;;;13.73;7.22;;;;;;;-4.36;77.93;100851.13;4920699;28;20047;-74
2022/11/26 01:12:40;;;;;;;13.70;9.05;;;;;;;-4.53;78.37;100853.63;4919996;28;20039;-70
2022/11/26 01:15:05;;;;;;;9.13;4.22;;;;;;;-4.39;78.21;100853.69;4902392;29;20046;-77
2022/11/26 01:17:29;;;;;;;16.45;8.23;;;;;;;-4.50;77.99;100863.16;4919165;28;20127;-77
2022/11/26 01:19:54;;;;;;;14.00;7.97;;;;;;;-4.50;78.38;100864.03;4905505;28;20090;-73
2022/11/26 01:22:22;;;;;;;10.98;6.72;;;;;;;-4.51;78.89;100853.59;4919363;28;20051;-76
2022/11/26 01:24:47;;;;;;;12.60;7.90;;;;;;;-4.48;78.36;100857.09;4918380;28;20043;-69
2022/11/26 01:27:12;;;;;;;13.93;8.73;;;;;;;-4.48;78.69;100857.09;4919366;28;20051;-73
2022/11/26 01:29:36;;;;;;;12.93;7.45;;;;;;;-4.47;79.06;100863.19;4934850;28;20094;-74
2022/11/26 01:32:01;;;;;;;13.38;6.65;;;;;;;-4.36;78.68;100858.94;4920623;28;20047;-74
2022/11/26 01:34:26;;;;;;;12.00;6.85;;;;;;;-4.39;78.85;100865.00;4935632;28;20046;-73
2022/11/26 01:36:50;;;;;;;15.35;8.85;;;;;;;-4.43;78.92;100864.97;4887385;28;20053;-72
2022/11/26 01:39:18;;;;;;;12.40;7.65;;;;;;;-4.44;78.90;100863.22;4902675;29;20576;-73
2022/11/26 01:42:06;;;;;;;13.50;6.95;;;;;;;-4.37;78.74;100859.78;4919313;28;20094;-72
2022/11/26 01:44:33;;;;;;;13.95;8.75;;;;;;;-4.37;79.47;100852.00;4918325;28;20130;-72
2022/11/26 01:47:00;;;;;;;17.17;7.70;;;;;;;-4.38;79.50;100858.91;4919874;28;20047;-72
2022/11/26 01:49:26;;;;;;;13.23;7.93;;;;;;;-4.34;79.34;100859.84;4916317;28;20043;-71
2022/11/26 01:52:04;;;;;;;13.65;6.90;;;;;;;-4.14;79.12;100871.25;4915606;28;20132;-74
2022/11/26 01:54:31;;;;;;;10.55;6.43;;;;;;;-4.21;78.61;100847.78;4921605;28;20525;-74
2022/11/26 01:57:02;;;;;;;11.38;6.75;;;;;;;-4.18;78.12;100861.72;4920132;28;20075;-72
2022/11/26 01:59:35;;;;;;;12.93;7.07;;;;;;;-4.32;77.91;100859.84;4919085;28;20054;-73
2022/11/26 02:02:00;;;;;;;12.77;7.50;;;;;;;-4.47;78.00;100858.84;4903132;28;20418;-72
2022/11/26 02:04:42;;;;;;;17.05;7.30;;;;;;;-4.47;78.19;100856.25;4919102;28;20162;-73
2022/11/26 02:07:06;;;;;;;12.60;6.97;;;;;;;-4.49;78.78;100851.88;4910551;28;20050;-74
2022/11/26 02:09:32;;;;;;;10.88;6.80;;;;;;;-4.48;78.56;100851.03;4921132;28;20043;-75
2022/11/26 02:11:56;;;;;;;12.02;7.30;;;;;;;-4.52;79.02;100846.69;4920991;29;20049;-71
2022/11/26 02:14:31;;;;;;;12.13;7.18;;;;;;;-4.46;79.34;100852.78;4927570;28;20031;-75
2022/11/26 02:17:14;;;;;;;14.30;8.48;;;;;;;-4.46;79.52;100857.13;4913761;28;20417;-72
2022/11/26 02:20:00;;;;;;;13.50;6.97;;;;;;;-4.38;79.41;100852.84;4916155;29;20561;-73
2022/11/26 02:22:47;;;;;;;5.18;3.38;;;;;;;-4.33;79.09;100848.56;4930848;28;20531;-76
2022/11/26 02:26:06;;;;;;;9.32;6.75;;;;;;;-4.36;78.50;100858.94;4916286;28;20027;-65
2022/11/26 02:28:47;;;;;;;11.18;5.57;;;;;;;-4.42;78.35;100859.78;4833254;29;20661;-67
2022/11/26 02:31:15;;;;;;;9.60;5.20;;;;;;;-4.46;78.77;100867.53;4861796;29;20060;-67
2022/11/26 02:33:56;;;;;;;13.02;8.23;;;;;;;-4.47;78.97;100865.78;4861447;29;20074;-67
2022/11/26 02:36:30;;;;;;;12.25;8.20;;;;;;;-4.45;78.28;100864.94;4863177;29;20059;-67
2022/11/26 02:38:55;;;;;;;12.13;6.95;;;;;;;-4.51;78.89;100858.81;4878933;29;20447;-66
2022/11/26 02:41:19;;;;;;;13.10;7.45;;;;;;;-4.53;78.41;100878.75;4877270;29;20520;-69
2022/11/26 02:43:45;;;;;;;9.35;6.78;;;;;;;-4.53;78.77;100876.16;4874845;29;20472;-68
2022/11/26 02:46:13;;;;;;;12.02;7.00;;;;;;;-4.60;79.11;100876.94;4877845;29;20139;-68
2022/11/26 02:48:43;;;;;;;8.98;4.63;;;;;;;-4.40;78.33;100880.59;4877543;29;20049;-67
2022/11/26 02:51:17;;;;;;;12.65;7.13;;;;;;;-4.49;78.49;100886.59;4847304;29;20502;-69
2022/11/26 02:53:44;;;;;;;10.55;7.43;;;;;;;-4.62;78.88;100881.25;4878151;29;20054;-67
2022/11/26 02:56:18;;;;;;;10.65;6.38;;;;;;;-4.66;78.64;100893.38;4863388;29;20058;-69
2022/11/26 02:58:43;;;;;;;10.27;6.70;;;;;;;-4.65;79.07;100878.63;4878137;29;20044;-67
2022/11/26 03:01:35;;;;;;;11.95;6.18;;;;;;;-4.55;79.63;100888.28;4878680;29;20111;-66
2022/11/26 03:04:08;;;;;;;10.52;5.88;;;;;;;-4.48;79.04;100884.88;4920933;28;20532;-72
2022/11/26 03:06:34;;;;;;;15.53;6.93;;;;;;;-4.59;79.24;100876.97;4928382;28;20413;-71
2022/11/26 03:08:59;;;;;;;12.18;7.07;;;;;;;-4.60;79.14;100887.34;4927194;28;20047;-72
2022/11/26 03:11:23;;;;;;;11.90;8.20;;;;;;;-4.59;78.73;100882.16;4914602;28;20067;-71
2022/11/26 03:13:48;;;;;;;12.70;7.30;;;;;;;-4.55;78.51;100893.47;4915371;28;20126;-68
2022/11/26 03:16:13;;;;;;;15.70;6.93;;;;;;;-4.54;78.36;100897.84;4920036;28;20035;-71
2022/11/26 03:18:37;;;;;;;13.43;6.80;;;;;;;-4.61;78.86;100883.88;4936758;28;20490;-72
2022/11/26 03:21:02;;;;;;;8.65;5.88;;;;;;;-4.59;78.83;100905.56;4921509;28;20163;-72
2022/11/26 03:23:27;;;;;;;5.75;3.33;;;;;;;-4.55;79.12;100889.16;4887251;29;20126;-71
2022/11/26 03:25:51;;;;;;;12.27;8.27;;;;;;;-4.60;79.26;100897.75;4937063;28;20481;-69
2022/11/26 03:28:16;;;;;;;8.73;6.18;;;;;;;-4.61;79.32;100889.06;4928122;28;20494;-75
2022/11/26 03:30:40;;;;;;;9.38;6.20;;;;;;;-4.57;79.72;100897.78;4940883;28;20062;-72
2022/11/26 03:33:05;;;;;;;10.93;5.60;;;;;;;-4.57;79.35;100895.19;4913072;28;20090;-73
2022/11/26 03:35:30;;;;;;;11.02;5.85;;;;;;;-4.58;79.47;100901.25;4922623;28;20055;-77
2022/11/26 03:37:54;;;;;;;8.27;5.18;;;;;;;-4.61;79.16;100899.47;4930391;28;20047;-76
2022/11/26 03:40:19;;;;;;;8.98;5.72;;;;;;;-4.48;78.95;100910.88;4907901;28;20051;-74
2022/11/26 03:42:44;;;;;;;11.35;6.70;;;;;;;-4.55;78.63;100901.28;4918487;28;20043;-74
2022/11/26 03:45:10;;;;;;;13.43;6.78;;;;;;;-4.68;78.45;100895.09;4933884;28;20038;-77
2022/11/26 03:47:35;;;;;;;7.68;5.35;;;;;;;-4.62;78.90;100902.06;4922719;28;20139;-77
2022/11/26 03:49:59;;;;;;;8.50;5.57;;;;;;;-4.66;78.65;100905.50;4922486;28;20130;-79
2022/11/26 03:52:24;;;;;;;4.65;3.78;;;;;;;-4.37;78.40;100904.03;4905286;28;20418;-72
2022/11/26 03:54:49;;;;;;;12.60;6.75;;;;;;;-4.46;77.23;100916.97;4921379;28;20422;-72
2022/11/26 03:57:13;;;;;;;5.30;3.30;;;;;;;-4.47;77.97;100913.50;4920763;28;20190;-72
2022/11/26 03:59:38;;;;;;;11.52;7.03;;;;;;;-4.57;77.70;100913.41;4921197;28;20067;-73
2022/11/26 04:02:03;;;;;;;11.48;6.95;;;;;;;-4.61;77.51;100914.22;4919591;28;20418;-71
2022/11/26 04:04:28;;;;;;;9.80;4.80;;;;;;;-4.62;77.56;100902.94;4907239;29;20036;-73
2022/11/26 04:06:53;;;;;;;9.32;6.18;;;;;;;-4.60;77.65;100915.97;4925469;28;20042;-70
2022/11/26 04:09:17;;;;;;;11.85;6.22;;;;;;;-4.63;77.58;100924.63;4909522;29;20398;-70
2022/11/26 04:11:44;;;;;;;5.72;3.88;;;;;;;-4.55;77.19;100912.56;4908082;28;20043;-69
2022/11/26 04:14:09;;;;;;;8.75;5.35;;;;;;;-4.70;77.80;100919.34;4904893;29;20051;-68
2022/11/26 04:16:34;;;;;;;12.38;5.25;;;;;;;-4.62;77.71;100928.94;4917311;28;20047;-69
2022/11/26 04:18:58;;;;;;;6.70;4.88;;;;;;;-4.71;77.60;100913.25;4922628;28;20047;-70
2022/11/26 04:21:23;;;;;;;6.88;5.20;;;;;;;-4.65;77.93;100925.47;4901835;29;20095;-74
2022/11/26 04:23:48;;;;;;;3.30;2.97;;;;;;;-4.56;78.16;100921.22;4916391;28;20042;-70
2022/11/26 04:26:12;;;;;;;7.32;5.20;;;;;;;-4.58;78.10;100927.28;4903273;29;20065;-74
2022/11/26 04:28:37;;;;;;;4.57;3.65;;;;;;;-4.61;77.56;100922.03;4917233;28;20051;-72
2022/11/26 04:31:02;;;;;;;4.57;3.65;;;;;;;-4.54;77.53;100926.44;4905637;29;20051;-72
2022/11/26 04:33:26;;;;;;;4.07;3.67;;;;;;;-4.50;77.08;100929.09;4900505;29;20039;-70
2022/11/26 04:35:52;;;;;;;10.50;6.45;;;;;;;-4.64;77.37;100919.41;4917947;28;20051;-76
2022/11/26 04:38:16;;;;;;;6.03;4.10;;;;;;;-4.57;78.11;100926.41;4923168;28;20047;-71
2022/11/26 04:40:41;;;;;;;8.32;5.70;;;;;;;-4.62;77.61;100928.94;4908365;28;20059;-71
2022/11/26 04:43:05;;;;;;;6.88;5.55;;;;;;;-4.62;77.54;100928.94;4918373;28;20039;-72
2022/11/26 04:45:30;;;;;;;5.47;3.65;;;;;;;-4.54;77.64;100927.31;4924141;28;20138;-71
2022/11/26 04:47:55;;;;;;;4.93;3.75;;;;;;;-4.47;77.54;100920.44;4922588;28;20047;-71
2022/11/26 04:50:19;;;;;;;7.32;4.28;;;;;;;-4.44;76.65;100926.56;4924117;28;20105;-71
2022/11/26 04:52:47;;;;;;;5.90;4.63;;;;;;;-4.46;76.46;100935.19;4922650;28;20043;-73
2022/11/26 04:55:11;;;;;;;8.65;6.28;;;;;;;-4.53;75.82;100923.88;4922456;28;20084;-73
2022/11/26 04:57:37;;;;;;;10.98;6.63;;;;;;;-4.72;76.30;100921.03;4901249;29;20074;-74
2022/11/26 05:00:03;;;;;;;8.80;5.78;;;;;;;-4.79;76.99;100938.31;4928188;28;20090;-74
2022/11/26 05:02:28;;;;;;;8.85;5.50;;;;;;;-4.84;76.78;100934.78;4939927;28;20137;-73
2022/11/26 05:04:53;;;;;;;9.45;6.68;;;;;;;-4.85;76.98;100931.31;4939504;28;20134;-74
2022/11/26 05:07:17;;;;;;;10.85;6.50;;;;;;;-4.72;77.38;100929.72;4902854;29;20552;-74
2022/11/26 05:09:42;;;;;;;11.85;6.72;;;;;;;-4.78;77.54;100940.06;4941404;28;20106;-73
2022/11/26 05:12:07;;;;;;;5.07;3.53;;;;;;;-4.58;77.29;100929.88;4932861;28;20042;-75
2022/11/26 05:14:31;;;;;;;10.60;6.43;;;;;;;-4.61;76.35;100935.91;4918145;28;20038;-73
2022/11/26 05:16:56;;;;;;;15.55;7.35;;;;;;;-4.78;76.73;100934.88;4917740;28;20418;-73
2022/11/26 05:19:20;;;;;;;10.55;6.95;;;;;;;-4.85;77.07;100933.91;4942516;28;20186;-73
2022/11/26 05:21:45;;;;;;;13.40;7.93;;;;;;;-4.78;76.60;100945.28;4910591;28;20043;-73
2022/11/26 05:24:10;;;;;;;13.57;8.52;;;;;;;-4.73;76.64;100940.09;4917206;28;20038;-72
2022/11/26 05:26:34;;;;;;;12.73;7.93;;;;;;;-4.79;76.87;100946.13;4932452;28;20035;-73
2022/11/26 05:28:59;;;;;;;13.52;7.65;;;;;;;-4.71;77.07;100941.00;4927276;28;20050;-73
2022/11/26 05:31:24;;;;;;;13.25;8.63;;;;;;;-4.80;77.04;100941.78;4938747;28;20038;-73
2022/11/26 05:33:49;;;;;;;15.70;7.57;;;;;;;-4.77;76.96;100960.91;4920996;28;20452;-74
2022/11/26 05:36:13;;;;;;;14.43;8.75;;;;;;;-4.83;77.55;100953.00;4905265;28;20069;-73
2022/11/26 05:38:38;;;;;;;7.53;5.93;;;;;;;-4.59;77.05;100967.16;4937951;28;20053;-71
2022/11/26 05:41:02;;;;;;;9.88;5.00;;;;;;;-4.52;76.37;100963.78;4911776;28;20449;-70
2022/11/26 05:43:27;;;;;;;9.57;6.78;;;;;;;-4.78;75.41;100958.28;4932947;28;20062;-72
2022/11/26 05:45:52;;;;;;;9.95;6.88;;;;;;;-4.98;75.45;100960.66;4921126;28;20070;-71
2022/11/26 05:48:16;;;;;;;9.07;5.43;;;;;;;-5.01;76.74;100968.41;4908990;28;20101;-74
2022/11/26 05:50:41;;;;;;;9.00;6.30;;;;;;;-4.98;77.05;100971.06;4938968;28;20409;-70
2022/11/26 05:53:06;;;;;;;12.32;7.25;;;;;;;-5.05;77.22;100976.13;4919859;28;20054;-74
2022/11/26 05:55:30;;;;;;;9.57;6.78;;;;;;;-5.02;76.96;100969.25;4939648;28;20035;-71
2022/11/26 05:57:55;;;;;;;10.98;7.00;;;;;;;-5.00;77.69;100980.56;4916316;28;20094;-71
2022/11/26 06:00:20;;;;;;;11.45;7.40;;;;;;;-5.04;77.14;100980.47;4915255;28;20059;-73
2022/11/26 06:02:45;;;;;;;8.77;6.63;;;;;;;-5.09;77.61;100988.25;4920419;28;20050;-74
2022/11/26 06:05:09;;;;;;;11.23;7.80;;;;;;;-5.06;76.97;100987.38;4892951;29;20759;-73
2022/11/26 06:07:34;;;;;;;11.25;7.43;;;;;;;-5.02;77.60;100989.19;4918623;28;20038;-76
2022/11/26 06:09:59;;;;;;;9.73;6.97;;;;;;;-4.98;77.53;100986.66;4904786;28;20049;-74
2022/11/26 06:12:24;;;;;;;8.73;5.75;;;;;;;-4.99;77.57;100994.44;4937566;28;20050;-73
2022/11/26 06:14:48;;;;;;;11.90;7.38;;;;;;;-4.92;77.25;100991.03;4896944;29;20046;-75
2022/11/26 06:17:13;;;;;;;11.23;7.28;;;;;;;-4.97;77.33;100985.81;4914145;28;20042;-75
2022/11/26 06:19:38;;;;;;;11.05;7.00;;;;;;;-4.92;77.54;100981.53;4901468;28;20039;-75
2022/11/26 06:22:03;;;;;;;9.57;5.55;;;;;;;-4.81;76.99;100981.66;4929033;28;20047;-75
2022/11/26 06:24:27;;;;;;;9.32;7.07;;;;;;;-4.96;76.77;100984.94;4937163;28;20049;-74
2022/11/26 06:26:52;;;;;;;9.00;5.75;;;;;;;-4.87;76.89;100986.78;4937293;28;20046;-74
2022/11/26 06:29:17;;;;;;;10.57;6.93;;;;;;;-4.90;76.76;100985.00;4937403;28;20413;-75
2022/11/26 06:31:41;;;;;;;10.65;6.40;;;;;;;-4.88;77.14;100991.13;4920078;28;20413;-75
2022/11/26 06:34:06;;;;;;;6.45;4.82;;;;;;;-4.71;76.99;101000.84;4920724;28;20505;-72
2022/11/26 06:36:30;;;;;;;11.45;7.05;;;;;;;-4.73;76.06;100986.94;4920023;28;20046;-74
2022/11/26 06:38:55;;;;;;;10.02;6.40;;;;;;;-4.62;75.36;101001.81;4938045;28;20089;-72
2022/11/26 06:41:20;;;;;;;17.63;6.28;;;;;;;-4.70;75.44;100993.06;4920346;28;20505;-74
2022/11/26 06:43:44;;;;;;;10.93;7.05;;;;;;;-4.87;75.28;100999.78;4903469;28;20193;-71
2022/11/26 06:46:10;;;;;;;8.45;6.00;;;;;;;-4.90;76.23;100997.16;4926876;28;20081;-73
2022/11/26 06:48:35;;;;;;;7.13;4.57;;;;;;;-4.78;76.30;101005.09;4937188;28;20038;-74
2022/11/26 06:51:09;;;;;;;11.05;7.40;;;;;;;-4.74;76.11;101006.03;4937521;28;20057;-74
2022/11/26 06:53:34;;;;;;;13.15;6.88;;;;;;;-4.85;76.05;101009.34;4903854;28;20049;-73
2022/11/26 06:56:03;;;;;;;10.10;6.65;;;;;;;-4.87;76.72;101015.41;4920061;28;20046;-73
2022/11/26 06:58:28;;;;;;;10.50;6.72;;;;;;;-4.87;76.70;101008.47;4907495;28;20045;-72
2022/11/26 07:00:53;;;;;;;11.20;6.15;;;;;;;-4.94;77.02;101006.63;4935827;28;20057;-73
2022/11/26 07:03:18;;;;;;;11.70;6.18;;;;;;;-4.87;77.10;101016.28;4908587;28;20070;-73
2022/11/26 07:05:42;;;;;;;12.18;7.97;;;;;;;-4.75;76.12;101015.56;4933794;28;20724;-73
2022/11/26 07:08:08;;;;;;;10.95;7.22;;;;;;;-4.83;76.60;101012.84;4916203;28;20047;-73
2022/11/26 07:10:32;;;;;;;14.73;8.13;;;;;;;-4.87;76.47;101021.47;4931605;28;20057;-73
2022/11/26 07:12:57;;;;;;;11.82;7.28;;;;;;;-4.80;76.69;101010.28;4937031;28;20513;-73
2022/11/26 07:15:22;;;;;;;8.88;6.13;;;;;;;-4.70;76.87;101018.19;4903594;28;20042;-72
2022/11/26 07:17:46;;;;;;;10.57;6.40;;;;;;;-4.77;76.26;101022.47;4915709;28;20039;-75
2022/11/26 07:20:13;;;;;;;12.75;8.80;;;;;;;-4.78;76.87;101021.59;4927442;28;20050;-72
2022/11/26 07:22:37;;;;;;;8.13;5.15;;;;;;;-4.61;76.25;101018.28;4936466;28;20079;-75
2022/11/26 07:25:02;;;;;;;9.50;6.75;;;;;;;-4.72;76.48;101036.38;4920061;28;20112;-76
2022/11/26 07:27:28;;;;;;;7.63;5.22;;;;;;;-4.62;76.17;101020.03;4937069;28;20134;-70
2022/11/26 07:29:53;;;;;;;14.45;9.20;;;;;;;-4.81;76.01;101026.75;4936579;28;20058;-69
2022/11/26 07:32:18;;;;;;;12.90;7.82;;;;;;;-4.83;76.17;101024.97;4936550;28;20058;-70
2022/11/26 07:34:43;;;;;;;7.22;4.43;;;;;;;-4.66;76.62;101025.19;4936642;28;20043;-69
2022/11/26 07:37:08;;;;;;;12.63;7.45;;;;;;;-4.74;76.06;101024.22;4884362;29;20035;-70
2022/11/26 07:39:33;;;;;;;13.68;8.32;;;;;;;-4.80;76.47;101036.28;4928303;28;20070;-69
2022/11/26 07:41:58;;;;;;;12.45;8.23;;;;;;;-4.74;76.12;101029.44;4902355;28;20145;-70
2022/11/26 07:44:23;;;;;;;11.68;7.57;;;;;;;-4.83;76.08;101033.66;4925925;28;20411;-71
2022/11/26 07:46:47;;;;;;;10.23;6.93;;;;;;;-4.82;76.28;101039.72;4905076;28;20482;-74
2022/11/26 07:49:12;;;;;;;12.63;8.35;;;;;;;-4.66;76.08;101043.41;4939347;28;20050;-72
2022/11/26 07:51:38;;;;;;;8.75;5.40;;;;;;;-4.59;76.11;101037.41;4900405;29;20097;-73
2022/11/26 07:54:06;;;;;;;11.70;7.65;;;;;;;-4.72;75.55;101041.59;4933990;28;20047;-72
2022/11/26 07:56:30;;;;;;;15.10;7.50;;;;;;;-4.79;76.33;101045.84;4936406;28;20049;-73
2022/11/26 07:58:55;;;;;;;12.52;7.18;;;;;;;-4.74;76.04;101047.66;4936495;28;20059;-73
2022/11/26 08:01:25;;;;;;;12.63;7.47;;;;;;;-4.68;76.05;101061.59;4919431;28;20042;-73
2022/11/26 08:03:50;;;;;;;14.43;8.13;;;;;;;-4.57;76.08;101033.09;4935590;28;20121;-74
2022/11/26 08:06:18;;;;;;;10.13;7.25;;;;;;;-4.58;76.05;101029.63;4903475;28;20065;-71
2022/11/26 08:08:42;;;;;;;10.48;7.05;;;;;;;-4.24;75.98;101028.25;4936787;28;20055;-71
2022/11/26 08:11:13;;;;;;;13.57;8.27;;;;;;;-4.39;75.09;101030.69;4919165;28;20086;-73
2022/11/26 08:13:38;;;;;;;11.63;6.88;;;;;;;-4.38;74.75;101029.84;4902820;28;20066;-71
2022/11/26 08:16:03;;;;;;;10.68;7.78;;;;;;;-4.39;74.92;101033.28;4904290;28;20138;-69
2022/11/26 08:18:28;;;;;;;14.32;7.60;;;;;;;-4.40;75.45;101047.16;4913193;28;20050;-71
2022/11/26 08:20:55;;;;;;;11.13;6.68;;;;;;;-4.38;75.61;101030.72;4939241;28;20050;-71
2022/11/26 08:23:19;;;;;;;9.30;6.30;;;;;;;-4.33;75.19;101029.91;4918622;28;20512;-72
2022/11/26 08:25:45;;;;;;;9.30;5.90;;;;;;;-4.29;75.38;101029.97;4922152;28;20054;-71
2022/11/26 08:28:10;;;;;;;15.43;9.52;;;;;;;-4.18;74.58;101036.16;4922027;28;20051;-75
2022/11/26 08:30:35;;;;;;;7.28;5.05;;;;;;;-4.01;73.83;101041.53;4903101;29;20070;-75
2022/11/26 08:32:59;;;;;;;7.07;4.05;;;;;;;-4.06;73.62;101058.81;4912948;28;20134;-75
2022/11/26 08:35:24;;;;;;;9.55;4.93;;;;;;;-4.08;73.14;101040.59;4902756;29;20427;-71
2022/11/26 08:37:49;;;;;;;12.55;8.85;;;;;;;-4.14;72.71;101048.34;4929477;28;20054;-72
2022/11/26 08:40:14;;;;;;;14.85;8.15;;;;;;;-4.29;72.87;101045.59;4939235;28;20052;-72
2022/11/26 08:42:38;;;;;;;10.95;6.32;;;;;;;-4.05;72.67;101048.41;4921857;28;20046;-71
2022/11/26 08:45:03;;;;;;;7.10;4.50;;;;;;;-4.03;71.20;101041.50;4908023;28;20043;-71
2022/11/26 08:47:28;;;;;;;13.30;8.30;;;;;;;-4.34;72.12;101047.25;4915499;28;20494;-71
2022/11/26 08:49:54;;;;;;;12.52;7.25;;;;;;;-4.33;72.24;101038.59;4930997;28;20650;-73
2022/11/26 08:52:19;;;;;;;12.77;6.97;;;;;;;-4.37;72.73;101044.59;4939007;28;20038;-71
2022/11/26 08:54:43;;;;;;;13.70;8.68;;;;;;;-4.30;73.29;101029.94;4922149;28;20517;-71
2022/11/26 08:57:08;;;;;;;11.85;7.45;;;;;;;-4.24;73.35;101036.09;4910004;28;20074;-73
2022/11/26 08:59:33;;;;;;;13.25;7.65;;;;;;;-4.20;73.76;101037.00;4918880;28;20062;-74
2022/11/26 09:01:58;;;;;;;11.32;7.88;;;;;;;-4.10;74.07;101033.63;4937363;28;20133;-71
2022/11/26 09:04:22;;;;;;;15.30;8.10;;;;;;;-3.98;73.36;101035.47;4944445;28;20073;-74
2022/11/26 09:06:47;;;;;;;11.02;7.13;;;;;;;-4.04;73.58;101038.88;4927743;28;20038;-72
2022/11/26 09:09:12;;;;;;;13.63;7.30;;;;;;;-4.00;73.67;101035.47;4945686;28;20034;-74
2022/11/26 09:11:45;;;;;;;18.85;9.30;;;;;;;-3.96;73.11;101041.56;4943719;28;20095;-74
2022/11/26 09:14:12;;;;;;;14.70;9.20;;;;;;;-4.05;73.64;101042.34;4922026;28;20600;-73
2022/11/26 09:16:37;;;;;;;12.35;7.82;;;;;;;-4.08;74.03;101047.53;4905678;28;20731;-72
2022/11/26 09:19:05;;;;;;;14.68;9.10;;;;;;;-3.94;73.22;101042.44;4921346;28;20049;-73
2022/11/26 09:21:30;;;;;;;13.13;8.30;;;;;;;-4.09;73.24;101046.66;4938937;28;20046;-73
2022/11/26 09:23:55;;;;;;;14.52;8.88;;;;;;;-4.12;73.82;101051.84;4917687;28;20057;-72
2022/11/26 09:26:21;;;;;;;12.18;7.63;;;;;;;-4.08;73.58;101045.81;4938343;28;20136;-70
2022/11/26 09:28:50;;;;;;;12.75;8.18;;;;;;;-3.94;73.69;101048.53;4918039;28;20641;-70
2022/11/26 09:31:15;;;;;;;9.27;7.13;;;;;;;-4.00;73.68;101039.78;4902111;28;20374;-69
2022/11/26 09:33:41;;;;;;;13.52;8.23;;;;;;;-4.09;73.63;101043.19;4922435;28;20126;-69
2022/11/26 09:36:09;;;;;;;11.88;7.13;;;;;;;-4.09;74.05;101051.88;4938172;28;20074;-69
2022/11/26 09:38:35;;;;;;;13.45;7.72;;;;;;;-4.00;73.54;101035.47;4921986;28;20035;-71
2022/11/26 09:41:31;;;;;;;11.35;5.95;;;;;;;-3.94;73.50;101043.31;4941693;28;20066;-70
2022/11/26 09:44:26;;;;;;;12.70;8.25;;;;;;;-4.06;74.05;101046.66;4943929;28;20053;-71
2022/11/26 09:47:03;;;;;;;;;;;;;;;-3.99;74.03;101042.41;4926833;28;20046;-71
2022/11/26 09:49:35;;;;;;;10.40;7.07;;;;;;;-4.07;73.46;101044.94;4910234;28;19941;-74
2022/11/26 09:51:59;;;;;;;12.50;7.88;;;;;;;-4.09;73.92;101045.78;4926634;28;20062;-74
2022/11/26 09:54:28;;;;;;;11.32;6.60;;;;;;;-4.10;73.71;101039.72;4944175;28;20839;-72
2022/11/26 09:57:05;;;;;;;18.10;8.38;;;;;;;-4.11;73.88;101040.56;4941117;28;20397;-73
2022/11/26 09:59:30;;;;;;;14.88;8.35;;;;;;;-4.08;74.16;101042.31;4921938;28;20059;-73
2022/11/26 10:01:55;;;;;;;12.30;7.53;;;;;;;-4.11;73.87;101050.97;4922685;28;20046;-74
2022/11/26 10:04:32;;;;;;;10.55;6.70;;;;;;;-4.06;74.16;101041.47;4921755;28;20043;-75
2022/11/26 10:07:14;;;;;;;5.20;3.72;;;;;;;-3.87;74.18;101036.44;4907070;28;20043;-75
2022/11/26 10:09:54;;;;;;;11.80;8.10;;;;;;;-3.89;73.94;101038.16;4905968;28;20043;-74
2022/11/26 10:12:32;;;;;;;14.20;8.35;;;;;;;-3.79;73.10;101033.03;4880857;28;20055;-74
2022/11/26 10:15:36;;;;;;;13.05;8.55;;;;;;;-3.94;73.66;101034.63;4910876;28;20101;-74
2022/11/26 10:18:41;;;;;;;21.00;8.95;;;;;;;-3.99;74.06;101029.38;4910589;28;20046;-74
2022/11/26 10:21:17;;;;;;;14.90;8.67;;;;;;;-3.98;74.08;101032.88;4865028;29;20210;-74
2022/11/26 10:23:49;;;;;;;12.52;8.40;;;;;;;-4.00;74.07;101029.38;4875287;29;20099;-75
2022/11/26 10:26:28;;;;;;;14.82;8.82;;;;;;;-3.94;73.69;101042.44;4882353;29;20063;-75
2022/11/26 10:29:33;;;;;;;14.30;8.57;;;;;;;-4.00;73.84;101035.47;4879427;29;20459;-73
2022/11/26 10:32:33;;;;;;;14.50;9.20;;;;;;;-3.91;74.13;101034.66;4879109;29;20056;-75
2022/11/26 10:34:58;;;;;;;16.23;9.43;;;;;;;-3.94;73.29;101045.91;4863065;29;20416;-74
2022/11/26 10:37:25;;;;;;;14.00;9.25;;;;;;;-4.05;73.76;101040.59;4840612;29;20488;-74
2022/11/26 10:39:56;;;;;;;11.65;8.00;;;;;;;-3.95;73.38;101043.31;4877604;29;20495;-74
2022/11/26 10:42:21;;;;;;;17.73;9.75;;;;;;;-4.00;73.12;101045.00;4865340;29;20044;-73
2022/11/26 10:44:48;;;;;;;13.57;7.82;;;;;;;-4.08;73.64;101043.19;4876683;29;20120;-72
2022/11/26 10:47:29;;;;;;;16.75;10.02;;;;;;;-4.06;73.41;101036.25;4848001;29;20452;-76
2022/11/26 10:50:20;;;;;;;14.57;9.00;;;;;;;-4.14;73.67;101043.13;4878651;29;20048;-73
2022/11/26 10:52:45;;;;;;;16.13;10.35;;;;;;;-4.07;73.56;101044.94;4859637;29;20076;-75
2022/11/26 10:55:30;;;;;;;14.40;7.65;;;;;;;-4.03;73.95;101051.03;4879213;29;20075;-72
2022/11/26 10:58:05;;;;;;;13.95;9.25;;;;;;;-4.15;73.82;101046.59;4902846;28;20051;-72
2022/11/26 11:00:40;;;;;;;15.68;8.20;;;;;;;-4.08;73.66;101048.41;4893417;28;20055;-76
2022/11/26 11:03:24;;;;;;;14.38;8.85;;;;;;;-4.09;73.18;101049.25;4917621;28;20406;-73
2022/11/26 11:05:50;;;;;;;14.73;9.27;;;;;;;-4.13;73.38;101044.88;4935986;28;20049;-73
2022/11/26 11:08:27;;;;;;;8.98;6.25;;;;;;;-4.10;74.10;101055.34;4921013;28;20142;-73
2022/11/26 11:10:55;;;;;;;13.73;7.93;;;;;;;-4.09;72.79;101049.25;4920811;28;20035;-73
2022/11/26 11:13:23;;;;;;;12.02;6.35;;;;;;;-3.96;72.59;101045.06;4904341;28;20066;-76
2022/11/26 11:16:00;;;;;;;14.25;9.32;;;;;;;-4.07;72.59;101044.06;4920413;28;20031;-76
2022/11/26 11:18:25;;;;;;;16.50;9.88;;;;;;;-4.34;72.95;101052.47;4904341;28;20049;-76
2022/11/26 11:20:54;;;;;;;19.23;10.20;;;;;;;-4.41;73.89;101064.53;4903658;28;20041;-75
2022/11/26 11:23:23;;;;;;;15.40;7.32;;;;;;;-4.21;73.92;101043.94;4919677;28;20039;-75